Aérodrome :
LOGIN :

S'inscrire | Disclaimer

   EN    FR    IT 

 










Légende :    VFR   VFR Marginal   IFR   IFR Intensif   IFR Très Intensif
Visi : 
Plafond : 
>= 8 km
>= 3000ft
5 à 8 km
1000 à 3000 ft
1500m à 5 km
500 à 1000 ft
800 à 1500m
200 à 500 ft
< 800m
< 200 ft
Symboles :   Orages  Brouillard  Fortes neiges  Fortes précipitations  Vent > 20 kt
SIGMETs :   Divers  Orages  Givrage  Turbulence  Onde Orograph.  Cendres Volcan.






- Altitude de l'aérodrome : 312 ft
- Code IATA : SAW


LTFJ - Sabiha Gokcen

DERNIER METAR :
  • 240950Z 14004KT 050V200 9999 SCT036 08/M02 Q1033 NOSIG RMK RWY24 11003KT 060V170

METARs EXPIRÉS :
  • 240920Z VRB06KT 9999 SCT036 07/M03 Q1034 NOSIG RMK RWY24 10005KT 060V130
  • 240850Z 09006KT 060V120 9999 SCT036 07/M02 Q1034 NOSIG RMK RWY24 07004KT 040V100
  • 240820Z 08004KT 030V110 9999 FEW035 07/M01 Q1033 NOSIG
  • 240750Z 08005KT 9999 FEW035 06/M01 Q1033 NOSIG RMK RWY24 VRB02KT
  • 240720Z 05005KT 9999 FEW035 06/M01 Q1033 NOSIG RMK RWY24 VRB02KT

TAF TAF LTFJ
Valide du 24 à 06h jusqu'au 25 à 06h UTC


240440Z 2406/2506 VRB02KT 9999 SCT035
BECMG 2410/2414 CAVOK



MET'MAP, la Météo Aéronautique d'un coup d'oeil ! - Copyright ORBIFLY Décembre 2007 - Disclaimer

ORBIFLY MET'MAP TEAM :

Programmation & Développement : Alexandra Zaïnal
Sur une idée originale de : Baudouin d'Aumeries
Assistance à la programmation : Marc-Olivier Méhu
Soutien technique & logistique : Manuel Goepfert

Contact : metmap@orbifly.com




SOURCES & CREDITS :

   NOAA